Hauptseite
METAR-TAF:

METAR-TAF

Flughäfen :

Flughafen Gibraltar

Gibraltar, Gibraltar

Breite: 36-09N, Länge: 005-21W, Höhe: 5 m

Beobachtung

Neuester Wetterbericht von vor 9 Stunden und 2 Minuten, um 20:50 UTC
Wind 5 kt aus Südwest
Temperatur 25°C
Luftfeuchtigkeit 57%
Luftdruck 1016 hPa
Sichtweite 10 km oder mehr

METAR: LXGB 162050Z AUTO 23005KT 9999 // NCD 25/16 Q1016

Zeit: 07:52 (05:52 UTC)

Prognose

Neuester Wetterbericht von vor 56 Minuten, um 04:56 UTC
Gültige Prognose vom 17 um 06 UTC bis 17 um 15 UTC
Wind 6 kt aus Nordwest
Sichtweite 10 km oder mehr
Leicht bewölkt in der Höhe von 2000 ft
Übergehend zu
vom 17 um 07 UTC bis 17 um 10 UTC
Wind 6 kt aus Ost/Südost
Wahrscheinlichkeit 40%
vom 17 um 10 UTC bis 17 um 15 UTC
Sichtweite: 7000 m
Aufgelockert bewölkt in der Höhe von 1200 ft
trockener Dunst

TAF: LXGB 170456Z 1706/1715 32006KT 9999 FEW020 BECMG 1707/1710 11006KT PROB40 1710/1715 7000 HZ SCT012

Wetterbeobachtungen und Prognosen von mehr als 4000 Flughäfen (METAR und TAF Bericht).

Die verfügbaren Stationen werden durch gelbe und rote Markierungen auf der Karte dargestellt.

Führen Sie die Maus auf sie, um den Namen der Station zu sehen.

Darauf klicken, um die Beobachtung von Wetterbeobachtungen und Prognosen zu sehen.

Um die Karte zu ändern : klicken Sie auf den grünen Tasten mit einem schwarzen Kreuz Zum Vergrößern, auf den grünen Button mit einem Gedankenstrich zu verkleinern, oder auf die grünen Pfeile für benachbarte Karten.


METAR-TAF: